Time;durP1;ratioP1;P1;durP2;ratioP2;P2;SDS_P1;SDS_P2;PMS_P1;PMS_P2;Temp;Humidity;BMP_temperature;BMP_pressure;BME280_temperature;BME280_humidity;BME280_pressure;Samples;Min_cycle;Max_cycle;Signal;HPM_P1;HPM_P2
2023/12/08 00:01:23;;;;;;;3.83;1.67;;;;;;;21.89;30.71;100096.69;4067416;29;20048;-58
2023/12/08 00:03:24;;;;;;;3.80;1.85;;;;;;;21.91;30.52;100102.78;4067485;29;20150;-58
2023/12/08 00:05:26;;;;;;;3.40;1.80;;;;;;;21.93;30.67;100110.66;4067276;29;20059;-58
2023/12/08 00:07:28;;;;;;;3.55;1.77;;;;;;;21.92;30.70;100103.59;4067224;29;20552;-58
2023/12/08 00:09:31;;;;;;;3.55;2.00;;;;;;;21.91;30.66;100105.44;4067365;29;20052;-58
2023/12/08 00:11:32;;;;;;;3.75;1.70;;;;;;;21.91;30.74;100113.47;4067454;29;20055;-58
2023/12/08 00:13:34;;;;;;;3.63;1.70;;;;;;;21.90;30.73;100116.31;4067269;29;20048;-58
2023/12/08 00:15:36;;;;;;;3.38;1.77;;;;;;;21.88;30.67;100118.28;4067279;29;20565;-58
2023/12/08 00:17:37;;;;;;;3.05;1.52;;;;;;;21.88;30.83;100120.94;4067457;29;20079;-57
2023/12/08 00:19:40;;;;;;;4.18;1.67;;;;;;;21.84;30.50;100113.19;4067216;29;20127;-58
2023/12/08 00:21:42;;;;;;;3.45;1.85;;;;;;;21.90;30.82;100124.34;4067032;29;20083;-56
2023/12/08 00:23:44;;;;;;;2.85;1.58;;;;;;;21.92;30.62;100127.69;4067350;29;20048;-58
2023/12/08 00:25:46;;;;;;;4.20;1.88;;;;;;;21.84;30.59;100110.50;4067223;29;20476;-58
2023/12/08 00:27:48;;;;;;;3.72;1.83;;;;;;;21.94;30.62;100123.88;4067223;29;20484;-58
2023/12/08 00:29:50;;;;;;;2.67;1.60;;;;;;;21.95;30.85;100136.28;4067314;29;20067;-58
2023/12/08 00:31:51;;;;;;;3.92;1.95;;;;;;;21.93;30.74;100126.72;4067171;29;20048;-58
2023/12/08 00:33:53;;;;;;;3.45;1.75;;;;;;;21.90;30.94;100127.84;4067195;29;20064;-58
2023/12/08 00:35:55;;;;;;;;;;;;;;;21.90;30.77;100129.69;4067286;29;20060;-56
2023/12/08 00:37:57;;;;;;;4.20;2.13;;;;;;;21.88;30.86;100135.16;4067325;29;19982;-57
2023/12/08 00:39:58;;;;;;;3.65;2.00;;;;;;;21.88;30.44;100129.81;4067116;29;20052;-58
2023/12/08 00:42:00;;;;;;;3.47;1.83;;;;;;;21.90;30.82;100129.69;4067245;29;20139;-58
2023/12/08 00:44:02;;;;;;;3.80;2.00;;;;;;;21.93;30.63;100132.06;4050097;29;20052;-57
2023/12/08 00:46:04;;;;;;;;;;;;;;;21.95;30.93;100133.59;4050839;29;20049;-58
2023/12/08 00:48:05;;;;;;;3.92;2.15;;;;;;;21.94;30.80;100134.59;4066184;29;20010;-58
2023/12/08 00:50:08;;;;;;;4.07;2.10;;;;;;;21.95;31.03;100141.63;4066986;29;20051;-58
2023/12/08 00:52:09;;;;;;;3.53;1.73;;;;;;;21.97;30.68;100141.50;4066753;29;20048;-57
2023/12/08 00:54:13;;;;;;;3.42;2.08;;;;;;;21.95;31.18;100147.00;4067155;29;20235;-57
2023/12/08 00:56:14;;;;;;;3.58;1.85;;;;;;;21.94;31.06;100137.25;4067045;29;20048;-58
2023/12/08 00:58:16;;;;;;;4.03;2.05;;;;;;;21.93;30.81;100134.75;4066986;29;20051;-57
2023/12/08 01:00:18;;;;;;;3.92;2.03;;;;;;;21.93;30.84;100135.56;4066811;29;20071;-57
2023/12/08 01:02:20;;;;;;;;;;;;;;;21.92;31.13;100120.53;4067424;29;20188;-57
2023/12/08 01:04:21;;;;;;;2.97;1.67;;;;;;;21.92;31.18;100131.22;4067016;29;19923;-58
2023/12/08 01:06:23;;;;;;;4.38;2.00;;;;;;;21.98;31.08;100135.16;4066579;29;20416;-58
2023/12/08 01:08:25;;;;;;;3.65;2.00;;;;;;;21.99;31.11;100135.03;4066843;29;20400;-57
2023/12/08 01:10:26;;;;;;;3.83;1.90;;;;;;;22.01;30.98;100130.34;4066812;29;20059;-57
2023/12/08 01:12:28;;;;;;;3.67;1.65;;;;;;;22.00;30.85;100134.00;4050108;29;20547;-58
2023/12/08 01:14:30;;;;;;;3.42;1.75;;;;;;;21.98;30.79;100130.66;4066992;29;20059;-57
2023/12/08 01:16:31;;;;;;;;;;;;;;;22.00;30.90;100135.88;4067202;29;20083;-57
2023/12/08 01:18:33;;;;;;;3.10;1.70;;;;;;;21.97;31.01;100138.81;4067026;29;19933;-57
2023/12/08 01:20:36;;;;;;;3.30;1.65;;;;;;;21.98;30.91;100138.69;4066472;29;20396;-58
2023/12/08 01:22:38;;;;;;;3.20;1.70;;;;;;;21.89;31.07;100126.16;4066885;29;20401;-57
2023/12/08 01:24:39;;;;;;;2.97;1.70;;;;;;;22.00;30.90;100143.91;4066858;29;20059;-58
2023/12/08 01:26:44;;;;;;;2.67;1.35;;;;;;;22.02;31.03;100156.16;4050707;29;20053;-57
2023/12/08 01:28:46;;;;;;;2.92;1.50;;;;;;;22.06;31.25;100153.19;4069540;29;20044;-57
2023/12/08 01:30:48;;;;;;;3.22;1.60;;;;;;;22.07;30.99;100157.56;4052926;29;20109;-57
2023/12/08 01:32:49;;;;;;;3.28;1.60;;;;;;;22.08;31.08;100162.78;4069704;29;20424;-57
2023/12/08 01:34:51;;;;;;;;;;;;;;;22.06;31.30;100158.56;4069697;29;20075;-57
2023/12/08 01:36:53;;;;;;;3.40;1.58;;;;;;;22.04;31.02;100155.16;4069839;29;20002;-57
2023/12/08 01:38:54;;;;;;;3.47;1.55;;;;;;;22.05;31.27;100156.84;4069548;29;20112;-58
2023/12/08 01:40:56;;;;;;;2.28;1.27;;;;;;;22.04;31.02;100157.84;4069713;29;20054;-58
2023/12/08 01:42:57;;;;;;;2.60;1.30;;;;;;;22.02;31.12;100163.34;4069510;29;20131;-57
2023/12/08 01:44:59;;;;;;;3.05;1.38;;;;;;;22.03;31.38;100157.00;4069483;29;20047;-57
2023/12/08 01:47:01;;;;;;;2.92;1.27;;;;;;;22.04;31.09;100163.19;4069662;29;20052;-57
2023/12/08 01:49:02;;;;;;;;;;;;;;;22.06;31.20;100161.22;4069371;29;20056;-57
2023/12/08 01:51:05;;;;;;;;;;;;;;;22.05;31.44;100165.72;4069903;29;19923;-56
2023/12/08 01:53:07;;;;;;;2.53;1.10;;;;;;;22.06;31.12;100161.22;4069293;29;19930;-55
2023/12/08 01:55:09;;;;;;;2.22;1.10;;;;;;;22.10;30.99;100162.63;4069192;29;20048;-57
2023/12/08 01:57:12;;;;;;;2.97;1.58;;;;;;;22.08;31.22;100168.13;4069182;29;20139;-57
2023/12/08 01:59:14;;;;;;;2.45;1.10;;;;;;;22.10;31.12;100168.84;4069033;29;20060;-58
2023/12/08 02:01:16;;;;;;;1.90;1.17;;;;;;;22.08;31.08;100169.94;4069454;29;20052;-56
2023/12/08 02:03:18;;;;;;;2.33;1.00;;;;;;;22.08;31.23;100168.13;4051932;29;20055;-57
2023/12/08 02:05:19;;;;;;;;;;;;;;;22.05;31.48;100159.53;4069519;29;20048;-57
2023/12/08 02:07:22;;;;;;;2.47;1.30;;;;;;;22.04;31.52;100174.75;4068993;29;19927;-58
2023/12/08 02:09:24;;;;;;;1.95;1.08;;;;;;;22.08;31.22;100176.16;4069205;29;20568;-56
2023/12/08 02:11:26;;;;;;;;;;;;;;;22.09;31.17;100179.66;4069447;29;20419;-56
2023/12/08 02:13:27;;;;;;;1.90;0.98;;;;;;;22.11;31.34;100183.91;4069148;29;19927;-57
2023/12/08 02:15:29;;;;;;;2.10;1.10;;;;;;;22.14;31.26;100185.44;4069058;29;20161;-55
2023/12/08 02:17:38;;;;;;;1.73;0.93;;;;;;;22.16;31.17;100191.50;4068858;29;20052;-57
2023/12/08 02:19:40;;;;;;;1.85;0.80;;;;;;;22.12;31.39;100187.44;4069013;29;20136;-57
2023/12/08 02:21:42;;;;;;;1.58;0.90;;;;;;;22.14;31.49;100190.78;4068886;29;20484;-58
2023/12/08 02:23:47;;;;;;;1.50;0.80;;;;;;;22.15;31.14;100200.53;4068790;29;20050;-57
2023/12/08 02:25:49;;;;;;;2.85;1.10;;;;;;;22.13;31.27;100207.88;4068768;29;20052;-57
2023/12/08 02:27:51;;;;;;;2.35;1.20;;;;;;;22.11;31.34;100213.34;4069034;29;20135;-57
2023/12/08 02:29:53;;;;;;;2.13;0.98;;;;;;;22.10;31.46;100200.13;4052123;29;20365;-57
2023/12/08 02:32:01;;;;;;;4.03;1.10;;;;;;;22.11;31.55;100205.31;4068404;29;20499;-57
2023/12/08 02:34:05;;;;;;;1.98;1.00;;;;;;;22.13;31.53;100202.53;4068792;29;20507;-58
2023/12/08 02:36:08;;;;;;;2.92;1.20;;;;;;;22.17;31.64;100196.72;4069137;29;20079;-57
2023/12/08 02:38:15;;;;;;;2.00;0.93;;;;;;;22.18;31.45;100194.91;4068830;29;20513;-58
2023/12/08 02:40:17;;;;;;;2.00;0.98;;;;;;;22.18;31.31;100193.06;4068535;29;20116;-57
2023/12/08 02:42:19;;;;;;;2.03;0.90;;;;;;;22.17;31.59;100198.56;4068716;29;20135;-57
2023/12/08 02:44:21;;;;;;;3.15;0.98;;;;;;;22.16;31.76;100191.50;4068689;29;20084;-57
2023/12/08 02:46:22;;;;;;;1.98;0.85;;;;;;;22.14;31.42;100183.63;4068253;29;20091;-57
2023/12/08 02:48:24;;;;;;;2.05;0.90;;;;;;;22.13;31.36;100181.94;4068530;29;20099;-57
2023/12/08 02:50:26;;;;;;;2.63;1.02;;;;;;;22.12;31.60;100188.28;4068211;29;20052;-57
2023/12/08 02:52:27;;;;;;;1.85;0.80;;;;;;;22.12;31.72;100185.59;4068591;29;20127;-57
2023/12/08 02:54:29;;;;;;;3.30;1.10;;;;;;;22.13;31.57;100187.28;4068681;29;20086;-58
2023/12/08 02:56:31;;;;;;;2.45;0.90;;;;;;;22.16;31.47;100189.69;4068219;29;20097;-57
2023/12/08 02:58:33;;;;;;;1.83;0.80;;;;;;;22.17;31.59;100188.69;4068411;29;20056;-57
2023/12/08 03:00:35;;;;;;;3.58;1.10;;;;;;;22.18;31.77;100190.38;4068289;29;20055;-58
2023/12/08 03:02:37;;;;;;;2.20;0.85;;;;;;;22.18;31.49;100193.06;4068139;29;20064;-57
2023/12/08 03:04:38;;;;;;;2.17;1.00;;;;;;;22.19;31.55;100191.22;4068079;29;20431;-57
2023/12/08 03:06:40;;;;;;;2.50;1.00;;;;;;;22.18;31.78;100189.53;4068382;29;20064;-58
2023/12/08 03:08:43;;;;;;;2.72;1.00;;;;;;;22.14;31.45;100178.25;4068039;29;20135;-57
2023/12/08 03:10:44;;;;;;;2.67;1.08;;;;;;;22.14;31.70;100180.09;4068488;29;20115;-57
2023/12/08 03:12:46;;;;;;;3.20;1.17;;;;;;;22.16;31.65;100180.78;4068080;29;20523;-57
2023/12/08 03:14:48;;;;;;;2.35;0.90;;;;;;;22.14;31.76;100169.38;4051296;29;20057;-57
2023/12/08 03:16:49;;;;;;;2.55;1.10;;;;;;;22.17;31.88;100164.56;4067879;29;20048;-58
2023/12/08 03:18:51;;;;;;;2.33;1.08;;;;;;;22.20;31.50;100171.50;4068244;29;20048;-58
2023/12/08 03:20:53;;;;;;;;;;;;;;;22.21;31.87;100180.38;4068434;29;20111;-57
2023/12/08 03:22:55;;;;;;;2.55;1.05;;;;;;;22.19;31.82;100180.53;4068012;29;20003;-57
2023/12/08 03:24:57;;;;;;;3.20;0.90;;;;;;;22.24;31.78;100177.41;4067899;29;20058;-57
2023/12/08 03:26:59;;;;;;;2.47;1.00;;;;;;;22.24;31.61;100185.44;4068064;29;20134;-57
2023/12/08 03:29:01;;;;;;;;;;;;;;;22.21;31.90;100191.91;4068403;29;20048;-58
2023/12/08 03:31:02;;;;;;;2.67;0.90;;;;;;;22.16;31.89;100184.34;4067820;29;19933;-57
2023/12/08 03:33:04;;;;;;;2.75;0.90;;;;;;;22.17;31.71;100183.31;4067951;29;20628;-57
2023/12/08 03:35:06;;;;;;;;;;;;;;;22.17;31.93;100185.16;4068338;29;20055;-57
2023/12/08 03:37:08;;;;;;;2.85;1.10;;;;;;;22.15;31.96;100201.38;4050841;29;19923;-57
2023/12/08 03:39:09;;;;;;;4.07;1.17;;;;;;;22.19;32.00;100204.63;4067698;29;20048;-57
2023/12/08 03:41:14;;;;;;;3.25;1.10;;;;;;;22.23;31.48;100205.19;4067762;29;20052;-57
2023/12/08 03:43:16;;;;;;;4.45;1.17;;;;;;;22.21;31.63;100196.44;4067563;29;20396;-57
2023/12/08 03:45:17;;;;;;;3.53;1.00;;;;;;;22.26;31.81;100205.75;4050533;29;20059;-57
2023/12/08 03:47:19;;;;;;;2.53;1.10;;;;;;;22.27;31.67;100214.63;4067871;29;20052;-57
2023/12/08 03:49:21;;;;;;;3.08;1.20;;;;;;;22.28;31.87;100219.00;4067460;29;20055;-58
2023/12/08 03:51:23;;;;;;;;;;;;;;;22.25;31.68;100214.78;4051426;29;20049;-57
2023/12/08 03:53:24;;;;;;;4.43;1.13;;;;;;;22.22;31.75;100208.84;4067702;29;20339;-57
2023/12/08 03:55:26;;;;;;;4.60;1.27;;;;;;;22.18;31.97;100217.16;4067564;29;20491;-57
2023/12/08 03:57:28;;;;;;;3.05;0.98;;;;;;;22.23;32.11;100243.53;4067627;29;20055;-57
2023/12/08 03:59:29;;;;;;;;;;;;;;;22.23;32.00;100246.19;4067572;29;20431;-58
2023/12/08 04:01:31;;;;;;;3.13;1.20;;;;;;;22.23;31.87;100243.53;4067754;29;19927;-57
2023/12/08 04:03:33;;;;;;;3.88;1.17;;;;;;;22.27;31.81;100244.94;4067379;29;20099;-57
2023/12/08 04:05:35;;;;;;;3.92;1.25;;;;;;;22.29;31.66;100256.34;4067585;29;20048;-58
2023/12/08 04:07:36;;;;;;;3.45;1.30;;;;;;;22.30;31.72;100254.53;4067456;29;20048;-58
2023/12/08 04:09:38;;;;;;;3.72;1.23;;;;;;;22.28;31.92;100249.28;4067505;29;20361;-57
2023/12/08 04:11:39;;;;;;;3.75;1.30;;;;;;;22.30;31.97;100251.84;4067564;29;20460;-58
2023/12/08 04:13:41;;;;;;;4.00;1.30;;;;;;;22.29;32.10;100259.03;4067141;29;20067;-57
2023/12/08 04:15:43;;;;;;;5.05;1.55;;;;;;;22.30;31.83;100262.56;4067335;29;20055;-57
2023/12/08 04:17:44;;;;;;;4.25;1.30;;;;;;;22.25;31.74;100265.66;4050546;29;20048;-57
2023/12/08 04:19:46;;;;;;;;;;;;;;;22.24;31.93;100271.16;4068021;29;20400;-57
2023/12/08 04:21:48;;;;;;;3.83;1.40;;;;;;;22.22;32.06;100271.28;4067503;29;19923;-58
2023/12/08 04:23:49;;;;;;;;;;;;;;;22.25;32.06;100281.72;4067799;29;20056;-58
2023/12/08 04:25:51;;;;;;;4.00;1.50;;;;;;;22.27;31.98;100286.94;4067612;29;19971;-57
2023/12/08 04:27:55;;;;;;;4.47;1.40;;;;;;;22.30;31.64;100284.81;4066977;29;20316;-57
2023/12/08 04:29:57;;;;;;;4.03;1.27;;;;;;;22.32;32.25;100287.34;4067193;29;20048;-57
2023/12/08 04:31:59;;;;;;;4.10;1.40;;;;;;;22.32;32.00;100282.84;4067392;29;20430;-57
2023/12/08 04:34:01;;;;;;;4.35;1.40;;;;;;;22.33;32.06;100286.38;4067364;29;20135;-57
2023/12/08 04:36:03;;;;;;;4.90;1.95;;;;;;;22.30;31.91;100279.47;4067251;29;20139;-57
2023/12/08 04:38:04;;;;;;;4.72;1.50;;;;;;;22.31;32.06;100285.69;4067328;29;20491;-57
2023/12/08 04:40:07;;;;;;;4.75;1.60;;;;;;;22.26;32.02;100278.06;4067351;29;20053;-57
2023/12/08 04:42:08;;;;;;;5.53;1.77;;;;;;;22.25;32.08;100279.06;4066941;29;20143;-57
2023/12/08 04:44:10;;;;;;;4.53;1.27;;;;;;;22.27;32.37;100281.59;4066729;29;20139;-57
2023/12/08 04:46:11;;;;;;;3.70;1.25;;;;;;;22.28;32.17;100276.06;4067167;29;20071;-57
2023/12/08 04:48:13;;;;;;;4.78;1.50;;;;;;;22.31;31.90;100291.06;4067029;29;20059;-57
2023/12/08 04:50:15;;;;;;;;;;;;;;;22.32;32.04;100288.22;4067641;29;20059;-58
2023/12/08 04:52:16;;;;;;;3.33;1.30;;;;;;;22.31;32.02;100291.06;4067214;29;19922;-57
2023/12/08 04:54:18;;;;;;;5.72;1.73;;;;;;;22.33;31.93;100295.28;4067198;29;20499;-57
2023/12/08 04:56:20;;;;;;;4.65;1.67;;;;;;;22.34;32.22;100296.09;4050149;29;20056;-58
2023/12/08 04:58:21;;;;;;;4.68;1.90;;;;;;;22.33;32.10;100305.13;4066926;29;20071;-58
2023/12/08 05:00:23;;;;;;;6.30;1.65;;;;;;;22.29;32.15;100299.19;4066813;29;20143;-58
2023/12/08 05:02:25;;;;;;;4.88;1.70;;;;;;;22.29;32.17;100303.72;4068786;29;20575;-57
2023/12/08 05:04:27;;;;;;;5.13;1.60;;;;;;;22.30;32.33;100303.56;4069987;29;20084;-57
2023/12/08 05:06:30;;;;;;;4.53;1.65;;;;;;;22.31;32.15;100310.63;4069969;29;20071;-57
2023/12/08 05:08:32;;;;;;;5.10;1.50;;;;;;;22.32;32.39;100304.28;4070106;29;20443;-57
2023/12/08 05:10:33;;;;;;;4.72;1.90;;;;;;;22.36;31.94;100312.03;4070120;29;20472;-58
2023/12/08 05:12:35;;;;;;;;;;;;;;;22.36;32.26;100312.03;4069926;29;20135;-57
2023/12/08 05:14:37;;;;;;;4.72;1.58;;;;;;;22.35;32.34;100313.88;4069872;29;19933;-58
2023/12/08 05:16:38;;;;;;;5.93;1.70;;;;;;;22.37;32.35;100325.31;4070056;29;20044;-57
2023/12/08 05:18:40;;;;;;;5.15;1.75;;;;;;;22.37;32.32;100324.44;4053161;29;20195;-57
2023/12/08 05:20:42;;;;;;;6.65;1.88;;;;;;;22.36;31.98;100323.63;4069739;29;20484;-57
2023/12/08 05:22:44;;;;;;;5.53;1.98;;;;;;;22.36;32.09;100320.06;4053053;29;20055;-58
2023/12/08 05:24:45;;;;;;;5.32;1.60;;;;;;;22.33;32.22;100310.47;4069758;29;20052;-58
2023/12/08 05:26:47;;;;;;;;;;;;;;;22.32;32.40;100314.16;4070077;29;20420;-58
2023/12/08 05:28:49;;;;;;;5.32;1.83;;;;;;;22.30;32.52;100316.13;4069525;29;19922;-56
2023/12/08 05:30:52;;;;;;;;;;;;;;;22.32;32.51;100317.69;4070344;29;20515;-58
2023/12/08 05:32:54;;;;;;;5.53;1.90;;;;;;;22.33;32.17;100319.38;4069763;29;19934;-58
2023/12/08 05:34:56;;;;;;;;;;;;;;;22.37;32.51;100321.75;4070088;29;20119;-58
2023/12/08 05:36:57;;;;;;;6.78;2.00;;;;;;;22.36;32.46;100320.06;4069587;29;19923;-58
2023/12/08 05:38:59;;;;;;;5.68;1.70;;;;;;;22.38;32.47;100323.47;4069761;29;20098;-57
2023/12/08 05:41:01;;;;;;;6.30;2.33;;;;;;;22.37;32.43;100322.63;4069320;29;20079;-57
2023/12/08 05:43:02;;;;;;;;;;;;;;;22.37;32.24;100324.44;4069975;29;20052;-57
2023/12/08 05:45:05;;;;;;;5.25;1.80;;;;;;;22.34;32.33;100334.44;4069173;29;20025;-58
2023/12/08 05:47:07;;;;;;;5.55;1.88;;;;;;;22.35;32.46;100343.34;4069308;29;20048;-57
2023/12/08 05:49:08;;;;;;;5.90;1.95;;;;;;;22.36;32.43;100346.88;4069456;29;20615;-58
2023/12/08 05:51:10;;;;;;;;;;;;;;;22.36;32.29;100342.38;4069847;29;20478;-56
2023/12/08 05:53:13;;;;;;;6.50;1.73;;;;;;;22.36;32.39;100345.03;4052535;29;19946;-57
2023/12/08 05:55:15;;;;;;;5.93;2.15;;;;;;;22.41;32.58;100344.66;4068997;29;20484;-58
2023/12/08 05:57:16;;;;;;;4.50;1.63;;;;;;;22.42;32.52;100346.31;4069292;29;20476;-58
2023/12/08 05:59:18;;;;;;;5.18;1.70;;;;;;;22.43;32.30;100348.03;4069049;29;20060;-57
2023/12/08 06:01:20;;;;;;;5.47;1.98;;;;;;;22.42;32.31;100341.84;4069127;29;20408;-58
2023/12/08 06:03:24;;;;;;;6.13;2.00;;;;;;;22.42;32.48;100346.31;4068963;29;20048;-57
2023/12/08 06:05:26;;;;;;;5.78;2.05;;;;;;;22.41;32.26;100350.84;4069231;29;20112;-57
2023/12/08 06:07:28;;;;;;;7.15;2.20;;;;;;;22.40;32.25;100354.50;4069143;29;20056;-57
2023/12/08 06:09:30;;;;;;;6.88;1.83;;;;;;;22.39;32.57;100360.03;4068975;29;20072;-57
2023/12/08 06:11:31;;;;;;;5.55;2.10;;;;;;;22.38;31.82;100364.50;4069059;29;20111;-58
2023/12/08 06:13:33;;;;;;;;;;;;;;;22.38;32.66;100360.97;4069306;29;20048;-58
2023/12/08 06:15:35;;;;;;;6.47;1.80;;;;;;;22.38;32.58;100359.16;4068915;29;19931;-57
2023/12/08 06:17:37;;;;;;;6.45;1.77;;;;;;;22.39;32.31;100358.19;4068915;29;20048;-58
2023/12/08 06:19:39;;;;;;;;;;;;;;;22.43;32.50;100364.97;4069274;29;20056;-57
2023/12/08 06:21:40;;;;;;;5.53;1.92;;;;;;;22.42;32.50;100373.97;4069055;29;19926;-58
2023/12/08 06:23:42;;;;;;;5.65;2.10;;;;;;;22.44;32.21;100372.03;4069098;29;20139;-57
2023/12/08 06:25:44;;;;;;;7.65;2.15;;;;;;;22.45;32.29;100376.38;4068835;29;20206;-57
2023/12/08 06:27:46;;;;;;;6.07;2.00;;;;;;;22.46;32.55;100379.91;4068754;29;20087;-57
2023/12/08 06:29:50;;;;;;;6.25;2.00;;;;;;;22.40;32.32;100373.28;4068945;29;20052;-56
2023/12/08 06:31:51;;;;;;;5.95;1.92;;;;;;;22.42;32.50;100384.72;4068786;29;20100;-56
2023/12/08 06:33:53;;;;;;;6.47;2.30;;;;;;;22.42;32.46;100391.88;4068486;29;20051;-55
2023/12/08 06:36:15;;;;;;;5.05;1.70;;;;;;;22.42;32.42;100390.06;4068921;29;20122;-57
2023/12/08 06:38:17;;;;;;;6.30;2.10;;;;;;;22.44;32.52;100390.78;4068393;29;20127;-56
2023/12/08 06:40:19;;;;;;;6.60;2.17;;;;;;;22.47;32.23;100409.25;4068618;29;20044;-56
2023/12/08 06:42:21;;;;;;;8.05;2.25;;;;;;;22.48;32.49;100402.06;4068656;29;20052;-57
2023/12/08 06:44:23;;;;;;;6.28;2.05;;;;;;;22.49;32.41;100409.09;4068577;29;20048;-56
2023/12/08 06:46:25;;;;;;;6.68;2.30;;;;;;;22.48;32.50;100399.38;4068598;29;20048;-56
2023/12/08 06:48:27;;;;;;;5.35;2.08;;;;;;;22.46;32.27;100402.19;4068638;29;20139;-56
2023/12/08 06:50:30;;;;;;;6.47;2.30;;;;;;;22.45;32.96;100405.84;4068338;29;20575;-56
2023/12/08 06:52:32;;;;;;;5.45;1.95;;;;;;;22.42;32.37;100400.78;4068364;29;20048;-57
2023/12/08 06:54:34;;;;;;;5.93;2.30;;;;;;;22.42;32.49;100406.13;4068075;29;20121;-56
2023/12/08 06:56:35;;;;;;;5.88;2.05;;;;;;;22.41;32.73;100412.47;4068527;29;20056;-56
2023/12/08 06:58:37;;;;;;;6.97;2.40;;;;;;;22.43;32.71;100415.00;4068090;29;20567;-57
2023/12/08 07:00:39;;;;;;;6.13;2.13;;;;;;;22.46;32.26;100420.94;4068380;29;20492;-56
2023/12/08 07:02:40;;;;;;;5.75;1.83;;;;;;;22.49;32.62;100425.16;4068271;29;20128;-55
2023/12/08 07:04:42;;;;;;;6.05;1.95;;;;;;;22.49;32.37;100436.75;4068106;29;20056;-56
2023/12/08 07:06:45;;;;;;;5.75;2.08;;;;;;;22.50;32.33;100429.53;4068177;29;20048;-57
2023/12/08 07:08:46;;;;;;;5.97;1.80;;;;;;;22.51;32.49;100435.78;4067694;29;20063;-58
2023/12/08 07:10:48;;;;;;;5.13;1.98;;;;;;;22.51;32.67;100439.28;4068227;29;20134;-57
2023/12/08 07:12:49;;;;;;;5.32;2.00;;;;;;;22.49;32.44;100450.16;4068181;29;20052;-57
2023/12/08 07:14:52;;;;;;;6.53;2.10;;;;;;;22.48;32.59;100450.31;4068136;29;20052;-57
2023/12/08 07:16:54;;;;;;;5.70;1.77;;;;;;;22.46;32.35;100439.69;4067975;29;20056;-57
2023/12/08 07:18:57;;;;;;;4.55;2.00;;;;;;;22.45;32.55;100438.00;4068063;29;20408;-57
2023/12/08 07:21:00;;;;;;;4.90;1.90;;;;;;;22.45;32.49;100438.00;4068097;29;20048;-57
2023/12/08 07:23:02;;;;;;;5.47;2.15;;;;;;;22.48;32.39;100442.25;4067629;29;20550;-57
2023/12/08 07:25:04;;;;;;;5.97;1.75;;;;;;;22.52;32.40;100453.53;4067269;29;20543;-58
2023/12/08 07:27:06;;;;;;;5.85;2.05;;;;;;;22.53;32.60;100457.91;4051010;29;20061;-57
2023/12/08 07:29:08;;;;;;;;;;;;;;;22.52;32.51;100461.56;4068463;29;20048;-57
2023/12/08 07:31:12;;;;;;;5.38;1.80;;;;;;;22.52;32.38;100473.16;4051064;29;19933;-57
2023/12/08 07:33:13;;;;;;;4.78;1.90;;;;;;;22.52;32.79;100481.19;4067786;29;20048;-57
2023/12/08 07:35:15;;;;;;;;;;;;;;;22.53;32.30;100482.03;4068159;29;20055;-56
2023/12/08 07:37:17;;;;;;;5.75;2.08;;;;;;;22.48;32.64;100479.78;4067576;29;19927;-57
2023/12/08 07:39:18;;;;;;;5.53;1.75;;;;;;;22.47;32.77;100478.09;4051002;29;20049;-59
2023/12/08 07:41:20;;;;;;;5.78;2.03;;;;;;;22.46;32.82;100473.69;4067846;29;20139;-59
2023/12/08 07:43:22;;;;;;;4.47;1.83;;;;;;;22.47;32.59;100475.41;4067846;29;20075;-56
2023/12/08 07:45:23;;;;;;;5.68;1.77;;;;;;;22.50;32.81;100480.47;4067643;29;20044;-57
2023/12/08 07:47:25;;;;;;;5.40;2.03;;;;;;;22.52;32.79;100478.50;4067644;29;20131;-56
2023/12/08 07:49:28;;;;;;;;;;;;;;;22.53;32.51;100484.69;4068085;29;20052;-57
2023/12/08 07:51:32;;;;;;;5.15;2.22;;;;;;;22.53;32.39;100485.56;4067396;29;20363;-56
2023/12/08 07:53:34;;;;;;;5.47;2.17;;;;;;;22.53;32.68;100484.69;4067541;29;20056;-57
2023/12/08 07:55:35;;;;;;;5.07;1.90;;;;;;;22.55;32.75;100490.78;4067444;29;20086;-57
2023/12/08 07:57:38;;;;;;;5.93;1.95;;;;;;;22.49;32.84;100484.13;4067445;29;20062;-57
2023/12/08 07:59:39;;;;;;;7.43;2.15;;;;;;;22.53;32.54;100490.06;4067234;29;20100;-57
2023/12/08 08:01:41;;;;;;;;;;;;;;;22.49;32.61;100493.03;4067915;29;20055;-57
2023/12/08 08:03:43;;;;;;;4.95;1.88;;;;;;;22.46;32.59;100498.66;4067400;29;19931;-57
2023/12/08 08:05:44;;;;;;;;;;;;;;;22.51;32.77;100503.59;4067613;29;20127;-57
2023/12/08 08:07:46;;;;;;;5.45;2.08;;;;;;;22.49;32.93;100505.56;4050746;29;19971;-57
2023/12/08 08:09:48;;;;;;;5.60;1.80;;;;;;;22.54;32.76;100500.66;4067269;29;20052;-57
2023/12/08 08:11:50;;;;;;;5.68;2.10;;;;;;;22.57;32.66;100499.53;4067427;29;20087;-57
2023/12/08 08:13:51;;;;;;;5.60;1.80;;;;;;;22.57;32.35;100512.94;4067448;29;20507;-57
2023/12/08 08:15:53;;;;;;;6.18;1.98;;;;;;;22.56;32.53;100517.44;4067489;29;20161;-57
2023/12/08 08:17:54;;;;;;;5.47;1.95;;;;;;;22.55;32.51;100517.59;4067258;29;20430;-57
2023/12/08 08:19:56;;;;;;;4.65;2.00;;;;;;;22.55;32.76;100512.22;4067086;29;20052;-56
2023/12/08 08:21:58;;;;;;;4.78;1.80;;;;;;;22.54;32.60;100522.09;4067442;29;20112;-56
2023/12/08 08:24:19;;;;;;;5.45;2.08;;;;;;;22.52;32.76;100524.06;4067184;29;20071;-57
2023/12/08 08:26:24;;;;;;;5.65;2.10;;;;;;;22.52;33.13;100525.88;4067172;29;20048;-56
2023/12/08 08:28:26;;;;;;;5.40;2.05;;;;;;;22.53;33.13;100514.19;4067121;29;20048;-57
2023/12/08 08:30:28;;;;;;;4.40;1.90;;;;;;;22.55;32.68;100525.63;4067205;29;20055;-56
2023/12/08 08:32:30;;;;;;;5.72;2.03;;;;;;;22.59;32.65;100532.38;4067217;29;20127;-57
2023/12/08 08:34:31;;;;;;;5.03;1.80;;;;;;;22.59;32.58;100522.53;4066678;29;20052;-57
2023/12/08 08:36:33;;;;;;;;;;;;;;;22.59;32.60;100532.38;4069422;29;20048;-56
2023/12/08 08:38:35;;;;;;;5.15;1.83;;;;;;;22.57;32.49;100537.06;4070394;29;19930;-56
2023/12/08 08:40:36;;;;;;;;;;;;;;;22.57;32.67;100545.94;4054055;29;20054;-56
2023/12/08 08:42:38;;;;;;;7.22;2.20;;;;;;;22.55;32.69;100555.09;4053518;29;19927;-57
2023/12/08 08:44:40;;;;;;;5.63;2.00;;;;;;;22.56;32.92;100554.13;4070319;29;20175;-56
2023/12/08 08:46:41;;;;;;;5.28;2.00;;;;;;;22.54;32.81;100540.00;4070252;29;20056;-56
2023/12/08 08:48:43;;;;;;;5.05;2.05;;;;;;;22.55;32.94;100547.06;4069970;29;20048;-57
2023/12/08 08:50:45;;;;;;;5.65;1.95;;;;;;;22.56;32.51;100532.69;4070299;29;20052;-56
2023/12/08 08:52:50;;;;;;;4.57;2.10;;;;;;;22.57;32.54;100535.22;4069957;29;20494;-55
2023/12/08 08:54:52;;;;;;;6.55;2.30;;;;;;;22.59;32.83;100541.28;4069869;29;20091;-56
2023/12/08 08:56:54;;;;;;;5.75;2.05;;;;;;;22.60;32.63;100542.13;4070196;29;20486;-58
2023/12/08 08:58:56;;;;;;;5.53;2.30;;;;;;;22.61;32.57;100538.47;4069693;29;20071;-56
2023/12/08 09:00:58;;;;;;;5.82;2.20;;;;;;;22.62;32.65;100542.84;4069913;29;20087;-56
2023/12/08 09:03:01;;;;;;;4.32;1.80;;;;;;;22.60;32.68;100537.63;4069739;29;20514;-57
2023/12/08 09:05:04;;;;;;;6.18;1.98;;;;;;;22.59;33.09;100530.56;4069791;29;20052;-57
2023/12/08 09:07:06;;;;;;;6.03;2.20;;;;;;;22.59;32.71;100530.56;4070097;29;20539;-56
2023/12/08 09:09:08;;;;;;;;;;;;;;;22.57;32.99;100535.22;4070267;29;20055;-55
2023/12/08 09:11:09;;;;;;;;;;;;;;;22.53;32.79;100528.44;4070472;29;19927;-56
2023/12/08 09:13:12;;;;;;;6.57;1.98;;;;;;;22.54;32.80;100537.31;4070035;29;19923;-55
2023/12/08 09:15:14;;;;;;;6.13;2.00;;;;;;;22.59;32.91;100540.44;4069809;29;20491;-56
2023/12/08 09:17:16;;;;;;;5.50;2.10;;;;;;;22.62;33.01;100534.81;4069797;29;20048;-56
2023/12/08 09:19:19;;;;;;;6.07;2.20;;;;;;;22.63;32.70;100528.47;4069536;29;20063;-57
2023/12/08 09:21:21;;;;;;;6.57;2.10;;;;;;;22.63;32.67;100528.47;4069849;29;20080;-59
2023/12/08 09:23:23;;;;;;;;;;;;;;;22.61;32.98;100539.34;4053530;29;20140;-57
2023/12/08 09:25:24;;;;;;;5.57;2.08;;;;;;;22.58;33.39;100536.91;4069524;29;20405;-55
2023/12/08 09:27:26;;;;;;;4.47;1.95;;;;;;;22.56;32.91;100530.00;4069549;29;20040;-56
2023/12/08 09:29:28;;;;;;;4.95;1.90;;;;;;;22.59;32.73;100538.63;4069454;29;20083;-58
2023/12/08 09:31:30;;;;;;;5.95;2.03;;;;;;;22.58;32.80;100538.75;4069738;29;20447;-57
2023/12/08 09:33:31;;;;;;;5.50;2.38;;;;;;;22.60;32.84;100547.50;4069312;29;20048;-56
2023/12/08 09:35:33;;;;;;;;;;;;;;;22.62;33.00;100550.91;4069997;29;20520;-56